createdAt,value
2023-02-04T00:00:22.883Z,11.48
2023-02-04T00:02:49.882Z,11.62
2023-02-04T00:05:19.912Z,11.51
2023-02-04T00:07:46.300Z,11.31
2023-02-04T00:10:13.037Z,10.74
2023-02-04T00:12:39.404Z,11.20
2023-02-04T00:15:06.468Z,11.47
2023-02-04T00:17:32.878Z,11.24
2023-02-04T00:19:59.265Z,11.23
2023-02-04T00:22:28.415Z,11.21
2023-02-04T00:24:54.932Z,11.29
2023-02-04T00:27:21.359Z,10.94
2023-02-04T00:29:47.711Z,11.37
2023-02-04T00:32:14.156Z,11.38
2023-02-04T00:34:41.071Z,11.32
2023-02-04T00:37:07.745Z,11.30
2023-02-04T00:39:34.157Z,10.94
2023-02-04T00:42:00.791Z,11.25
2023-02-04T00:44:27.219Z,11.11
2023-02-04T00:46:53.639Z,11.22
2023-02-04T00:49:19.980Z,11.27
2023-02-04T00:51:46.613Z,10.99
2023-02-04T00:54:15.766Z,10.77
2023-02-04T00:56:43.407Z,11.18
2023-02-04T00:59:10.250Z,10.79
2023-02-04T01:01:37.244Z,11.04
2023-02-04T01:04:03.923Z,11.24
2023-02-04T01:06:30.314Z,11.24
2023-02-04T01:08:56.650Z,10.91
2023-02-04T01:11:23.111Z,11.56
2023-02-04T01:13:49.431Z,11.16
2023-02-04T01:16:15.838Z,11.26
2023-02-04T01:18:42.252Z,11.32
2023-02-04T01:21:08.575Z,10.89
2023-02-04T01:23:34.923Z,11.36
2023-02-04T01:26:01.330Z,10.80
2023-02-04T01:28:27.996Z,11.16
2023-02-04T01:30:54.511Z,11.29
2023-02-04T01:33:21.029Z,10.91
2023-02-04T01:35:47.409Z,11.35
2023-02-04T01:38:13.935Z,11.13
2023-02-04T01:40:41.925Z,11.31
2023-02-04T01:43:09.000Z,11.35
2023-02-04T01:45:35.867Z,11.37
2023-02-04T01:48:07.440Z,11.34
2023-02-04T01:50:34.552Z,10.50
2023-02-04T01:53:01.279Z,9.90
2023-02-04T01:55:31.252Z,11.09
2023-02-04T01:57:58.965Z,11.15
2023-02-04T02:00:31.508Z,11.26
2023-02-04T02:02:59.419Z,11.22
2023-02-04T02:05:32.729Z,11.10
2023-02-04T02:08:02.041Z,10.87
2023-02-04T02:10:29.608Z,11.04
2023-02-04T02:12:57.146Z,10.80
2023-02-04T02:15:24.701Z,11.15
2023-02-04T02:17:53.087Z,11.11
2023-02-04T02:20:22.293Z,11.01
2023-02-04T02:23:46.149Z,11.15
2023-02-04T02:26:13.836Z,10.92
2023-02-04T02:28:40.316Z,10.39
2023-02-04T02:31:07.184Z,11.02
2023-02-04T02:33:34.137Z,10.83
2023-02-04T02:36:00.805Z,10.32
2023-02-04T02:38:27.252Z,10.37
2023-02-04T02:40:54.416Z,10.45
2023-02-04T02:43:23.870Z,10.83
2023-02-04T02:45:51.233Z,10.61
2023-02-04T02:48:18.120Z,10.94
2023-02-04T02:50:45.163Z,10.32
2023-02-04T02:53:14.197Z,11.02
2023-02-04T02:55:40.784Z,10.84
2023-02-04T02:58:15.503Z,10.58
2023-02-04T03:00:41.872Z,10.41
2023-02-04T03:03:17.882Z,10.40
2023-02-04T03:05:47.876Z,10.73
2023-02-04T03:08:16.343Z,10.17
2023-02-04T03:10:44.128Z,10.48
2023-02-04T03:13:13.529Z,10.41
2023-02-04T03:15:41.265Z,10.75
2023-02-04T03:18:07.856Z,10.39
2023-02-04T03:20:35.121Z,10.63
2023-02-04T03:23:01.666Z,10.63
2023-02-04T03:25:28.735Z,10.57
2023-02-04T03:27:58.220Z,10.66
2023-02-04T03:30:25.995Z,10.63
2023-02-04T03:32:52.746Z,9.91
2023-02-04T03:35:19.923Z,10.65
2023-02-04T03:37:46.358Z,10.64
2023-02-04T03:40:13.183Z,10.39
2023-02-04T03:42:39.664Z,10.40
2023-02-04T03:45:06.190Z,10.37
2023-02-04T03:47:32.821Z,10.33
2023-02-04T03:49:59.228Z,10.35
2023-02-04T03:52:25.613Z,10.43
2023-02-04T03:54:51.984Z,10.47
2023-02-04T03:57:18.386Z,10.10
2023-02-04T03:59:44.758Z,10.30
2023-02-04T04:02:11.075Z,10.49
2023-02-04T04:04:37.408Z,10.29
2023-02-04T04:07:03.824Z,10.49
2023-02-04T04:09:30.184Z,10.50
2023-02-04T04:11:56.654Z,10.28
2023-02-04T04:14:23.034Z,10.15
2023-02-04T04:16:49.418Z,10.46
2023-02-04T04:19:15.738Z,9.80
2023-02-04T04:21:42.094Z,10.36
2023-02-04T04:24:08.457Z,10.02
2023-02-04T04:26:34.886Z,10.41
2023-02-04T04:29:01.232Z,9.84
2023-02-04T04:31:27.689Z,10.09
2023-02-04T04:33:54.111Z,10.40
2023-02-04T04:36:20.434Z,10.34
2023-02-04T04:38:46.764Z,9.88
2023-02-04T04:41:13.108Z,10.18
2023-02-04T04:43:39.450Z,10.36
2023-02-04T04:46:05.912Z,10.40
2023-02-04T04:48:32.378Z,10.50
2023-02-04T04:50:58.777Z,10.48
2023-02-04T04:53:25.150Z,10.47
2023-02-04T04:55:51.493Z,9.86
2023-02-04T04:58:17.834Z,10.07
2023-02-04T05:00:44.238Z,10.68
2023-02-04T05:03:10.764Z,9.89
2023-02-04T05:05:40.684Z,9.94
2023-02-04T05:08:13.250Z,10.57
2023-02-04T05:10:40.442Z,10.03
2023-02-04T05:13:06.878Z,10.46
2023-02-04T05:15:33.524Z,10.00
2023-02-04T05:17:59.936Z,10.36
2023-02-04T05:20:26.404Z,9.97
2023-02-04T05:22:53.297Z,10.03
2023-02-04T05:25:19.708Z,10.03
2023-02-04T05:27:46.108Z,10.24
2023-02-04T05:30:14.049Z,10.11
2023-02-04T05:32:41.062Z,9.99
2023-02-04T05:35:08.271Z,10.55
2023-02-04T05:37:34.648Z,10.12
2023-02-04T05:40:01.010Z,10.04
2023-02-04T05:42:27.400Z,10.44
2023-02-04T05:44:53.736Z,10.22
2023-02-04T05:47:20.452Z,10.52
2023-02-04T05:49:46.984Z,10.40
2023-02-04T05:52:13.330Z,9.89
2023-02-04T05:54:39.693Z,10.28
2023-02-04T05:57:06.851Z,9.77
2023-02-04T05:59:33.206Z,9.84
2023-02-04T06:01:59.550Z,9.59
2023-02-04T06:04:25.919Z,10.38
2023-02-04T06:06:52.467Z,10.41
2023-02-04T06:09:18.851Z,10.16
2023-02-04T06:11:45.247Z,9.67
2023-02-04T06:14:11.660Z,10.43
2023-02-04T06:16:38.068Z,10.18
2023-02-04T06:19:04.454Z,9.90
2023-02-04T06:21:30.849Z,10.07
2023-02-04T06:23:57.173Z,10.48
2023-02-04T06:26:24.667Z,10.36
2023-02-04T06:28:51.099Z,10.33
2023-02-04T06:31:17.481Z,9.81
2023-02-04T06:33:43.883Z,9.66
2023-02-04T06:36:10.257Z,10.52
2023-02-04T06:38:36.625Z,9.94
2023-02-04T06:41:02.953Z,9.87
2023-02-04T06:43:29.348Z,10.41
2023-02-04T06:45:55.764Z,10.04
2023-02-04T06:48:22.163Z,10.52
2023-02-04T06:50:48.516Z,10.42
2023-02-04T06:53:14.913Z,10.04
2023-02-04T06:55:41.276Z,10.32
2023-02-04T06:58:07.658Z,10.33
2023-02-04T07:00:34.378Z,10.39
2023-02-04T07:03:01.032Z,10.33
2023-02-04T07:05:27.417Z,10.27
2023-02-04T07:07:53.768Z,10.22
2023-02-04T07:10:23.020Z,10.46
2023-02-04T07:12:49.339Z,10.30
2023-02-04T07:15:16.112Z,10.27
2023-02-04T07:17:42.433Z,9.68
2023-02-04T07:20:10.365Z,10.31
2023-02-04T07:22:36.724Z,10.04
2023-02-04T07:25:03.804Z,10.17
2023-02-04T07:27:30.534Z,10.34
2023-02-04T07:29:56.873Z,9.62
2023-02-04T07:32:23.289Z,9.63
2023-02-04T07:34:49.658Z,9.60
2023-02-04T07:37:16.065Z,10.06
2023-02-04T07:39:42.397Z,9.97
2023-02-04T07:42:09.120Z,10.30
2023-02-04T07:44:35.517Z,9.80
2023-02-04T07:47:01.891Z,10.24
2023-02-04T07:49:28.830Z,10.38
2023-02-04T07:51:55.267Z,10.17
2023-02-04T07:54:23.053Z,10.29
2023-02-04T07:56:49.508Z,10.42
2023-02-04T07:59:15.901Z,10.01
2023-02-04T08:01:42.277Z,10.20
2023-02-04T08:04:08.677Z,9.91
2023-02-04T08:06:35.103Z,9.73
2023-02-04T08:09:01.431Z,10.48
2023-02-04T08:11:53.629Z,10.17
2023-02-04T08:14:18.159Z,9.60
2023-02-04T08:16:44.530Z,9.83
2023-02-04T08:19:10.959Z,10.49
2023-02-04T08:21:37.333Z,9.29
2023-02-04T08:24:04.212Z,9.68
2023-02-04T08:26:30.675Z,10.12
2023-02-04T08:28:57.032Z,10.54
2023-02-04T08:31:23.513Z,10.39
2023-02-04T08:33:49.922Z,10.13
2023-02-04T08:36:16.718Z,10.52
2023-02-04T08:38:44.559Z,9.85
2023-02-04T08:41:11.205Z,10.44
2023-02-04T08:43:37.658Z,10.72
2023-02-04T08:46:05.467Z,10.48
2023-02-04T08:48:31.865Z,10.74
2023-02-04T08:50:58.256Z,10.34
2023-02-04T08:53:24.660Z,11.00
2023-02-04T08:55:51.030Z,11.09
2023-02-04T08:58:17.377Z,11.26
2023-02-04T09:00:43.701Z,11.32
2023-02-04T09:03:10.399Z,11.48
2023-02-04T09:05:39.814Z,11.29
2023-02-04T09:08:06.167Z,11.37
2023-02-04T09:10:32.846Z,11.37
2023-02-04T09:12:59.434Z,11.34
2023-02-04T09:15:25.951Z,11.68
2023-02-04T09:18:04.356Z,11.58
2023-02-04T09:20:31.087Z,11.72
2023-02-04T09:22:57.642Z,10.99
2023-02-04T09:25:24.042Z,11.02
2023-02-04T09:27:50.502Z,11.54
2023-02-04T09:30:17.124Z,11.69
2023-02-04T09:32:43.476Z,11.45
2023-02-04T09:35:09.937Z,11.96
2023-02-04T09:37:36.266Z,11.33
2023-02-04T09:40:02.734Z,11.14
2023-02-04T09:42:29.217Z,11.56
2023-02-04T09:44:55.650Z,11.36
2023-02-04T09:47:25.280Z,11.50
2023-02-04T09:49:52.049Z,11.75
2023-02-04T09:52:18.670Z,11.84
2023-02-04T09:54:45.230Z,11.85
2023-02-04T09:57:19.590Z,12.32
2023-02-04T09:59:46.311Z,11.54
2023-02-04T10:02:21.549Z,11.71
2023-02-04T10:04:48.401Z,12.25
2023-02-04T10:07:21.957Z,12.57
2023-02-04T10:09:50.106Z,12.16
2023-02-04T10:12:16.609Z,12.39
2023-02-04T10:14:43.699Z,12.36
2023-02-04T10:17:11.516Z,12.40
2023-02-04T10:19:38.005Z,12.38
2023-02-04T10:22:16.970Z,12.28
2023-02-04T10:24:43.532Z,12.99
2023-02-04T10:27:11.911Z,12.47
2023-02-04T10:29:40.253Z,12.37
2023-02-04T10:32:06.742Z,12.44
2023-02-04T10:34:43.708Z,12.91
2023-02-04T10:37:21.269Z,12.99
2023-02-04T10:39:49.644Z,12.55
2023-02-04T10:42:27.581Z,13.37
2023-02-04T10:44:54.835Z,13.34
2023-02-04T10:47:24.529Z,12.69
2023-02-04T10:50:00.286Z,13.40
2023-02-04T10:52:35.133Z,13.17
2023-02-04T10:55:04.422Z,13.69
2023-02-04T10:57:33.045Z,13.75
2023-02-04T11:00:02.324Z,13.28
2023-02-04T11:02:48.990Z,13.84
2023-02-04T11:05:21.437Z,14.01
2023-02-04T11:07:49.543Z,14.01
2023-02-04T11:10:22.052Z,13.50
2023-02-04T11:12:54.486Z,14.03
2023-02-04T11:15:36.172Z,13.78
2023-02-04T11:18:04.870Z,13.87
2023-02-04T11:20:34.148Z,13.80
2023-02-04T11:23:25.561Z,14.08
2023-02-04T11:26:32.604Z,13.97
2023-02-04T11:28:58.879Z,13.99
2023-02-04T11:31:27.155Z,13.92
2023-02-04T11:34:22.953Z,14.11
2023-02-04T11:37:07.974Z,14.22
2023-02-04T11:39:42.329Z,14.21
2023-02-04T11:42:23.151Z,14.50
2023-02-04T11:44:54.669Z,14.59
2023-02-04T11:47:23.669Z,14.76
2023-02-04T11:49:55.973Z,15.18
2023-02-04T11:52:22.465Z,15.41
2023-02-04T11:54:59.589Z,15.62
2023-02-04T11:57:26.822Z,15.87
2023-02-04T11:59:54.210Z,15.89
2023-02-04T12:02:23.875Z,15.60
2023-02-04T12:05:12.610Z,15.35
2023-02-04T12:07:39.947Z,14.93
2023-02-04T12:10:24.120Z,14.99
2023-02-04T12:12:57.572Z,14.43
2023-02-04T12:15:36.139Z,14.37
2023-02-04T12:18:04.574Z,14.60
2023-02-04T12:20:31.149Z,14.49
2023-02-04T12:22:57.656Z,14.60
2023-02-04T12:25:24.531Z,14.74
2023-02-04T12:27:51.705Z,14.83
2023-02-04T12:30:20.552Z,14.98
2023-02-04T12:32:46.921Z,14.79
2023-02-04T12:35:13.830Z,14.32
2023-02-04T12:37:41.710Z,14.76
2023-02-04T12:40:09.974Z,13.89
2023-02-04T12:42:36.408Z,14.53
2023-02-04T12:45:02.947Z,14.24
2023-02-04T12:47:29.312Z,14.46
2023-02-04T12:49:55.673Z,14.49
2023-02-04T12:52:22.016Z,14.48
2023-02-04T12:54:48.572Z,14.64
2023-02-04T12:57:19.579Z,14.72
2023-02-04T12:59:46.949Z,14.69
2023-02-04T13:02:13.451Z,14.78
2023-02-04T13:04:40.464Z,14.09
2023-02-04T13:07:10.316Z,14.42
2023-02-04T13:09:37.093Z,14.12
2023-02-04T13:12:04.167Z,14.31
2023-02-04T13:14:32.512Z,15.07
2023-02-04T13:16:59.453Z,14.25
2023-02-04T13:19:25.821Z,13.97
2023-02-04T13:21:52.185Z,14.10
2023-02-04T13:24:18.524Z,14.16
2023-02-04T13:26:44.948Z,14.45
2023-02-04T13:29:11.800Z,14.36
2023-02-04T13:31:38.192Z,14.38
2023-02-04T13:34:04.560Z,14.13
2023-02-04T13:36:30.876Z,14.16
2023-02-04T13:39:01.008Z,13.93
2023-02-04T13:41:28.224Z,14.03
2023-02-04T13:43:54.730Z,14.03
2023-02-04T13:46:21.913Z,14.64
2023-02-04T13:48:48.287Z,14.19
2023-02-04T13:51:14.664Z,14.07
2023-02-04T13:53:41.025Z,14.22
2023-02-04T13:56:07.567Z,14.20
2023-02-04T13:58:34.111Z,14.39
2023-02-04T14:01:02.917Z,14.35
2023-02-04T14:03:30.047Z,14.20
2023-02-04T14:05:56.747Z,14.22
2023-02-04T14:08:23.699Z,14.06
2023-02-04T14:10:50.097Z,14.49
2023-02-04T14:13:16.812Z,14.09
2023-02-04T14:15:43.152Z,14.82
2023-02-04T14:18:10.922Z,15.01
2023-02-04T14:20:37.696Z,14.85
2023-02-04T14:23:05.856Z,14.70
2023-02-04T14:25:32.228Z,14.71
2023-02-04T14:28:00.177Z,14.15
2023-02-04T14:30:28.992Z,14.93
2023-02-04T14:32:56.526Z,15.16
2023-02-04T14:35:23.044Z,14.72
2023-02-04T14:37:49.682Z,15.26
2023-02-04T14:40:18.237Z,15.19
2023-02-04T14:42:45.334Z,14.60
2023-02-04T14:45:13.764Z,14.78
2023-02-04T14:47:40.510Z,14.70
2023-02-04T14:50:10.930Z,14.82
2023-02-04T14:52:37.340Z,14.04
2023-02-04T14:55:03.932Z,13.79
2023-02-04T14:57:30.267Z,13.80
2023-02-04T14:59:56.686Z,13.88
2023-02-04T15:02:23.264Z,14.10
2023-02-04T15:04:49.761Z,13.38
2023-02-04T15:07:16.143Z,13.75
2023-02-04T15:09:44.524Z,13.34
2023-02-04T15:12:11.444Z,13.63
2023-02-04T15:14:37.862Z,13.67
2023-02-04T15:17:04.313Z,13.71
2023-02-04T15:19:33.538Z,13.29
2023-02-04T15:22:14.292Z,13.61
2023-02-04T15:24:40.629Z,12.79
2023-02-04T15:27:07.074Z,13.33
2023-02-04T15:29:33.501Z,13.31
2023-02-04T15:32:00.075Z,13.47
2023-02-04T15:34:26.553Z,13.81
2023-02-04T15:36:52.946Z,13.10
2023-02-04T15:39:19.319Z,13.15
2023-02-04T15:41:45.663Z,13.73
2023-02-04T15:44:12.526Z,13.37
2023-02-04T15:46:38.974Z,13.38
2023-02-04T15:49:05.442Z,13.01
2023-02-04T15:51:31.839Z,13.43
2023-02-04T15:53:58.186Z,13.60
2023-02-04T15:56:24.651Z,13.47
2023-02-04T15:58:50.974Z,13.63
2023-02-04T16:01:17.439Z,13.13
2023-02-04T16:03:45.852Z,13.47
2023-02-04T16:06:12.225Z,13.39
2023-02-04T16:08:38.830Z,13.52
2023-02-04T16:11:06.130Z,13.47
2023-02-04T16:13:32.857Z,13.33
2023-02-04T16:15:59.319Z,13.07
2023-02-04T16:18:25.781Z,13.24
2023-02-04T16:20:52.428Z,13.14
2023-02-04T16:23:18.905Z,13.30
2023-02-04T16:25:45.239Z,13.07
2023-02-04T16:28:11.712Z,13.24
2023-02-04T16:30:39.309Z,13.31
2023-02-04T16:33:06.835Z,13.34
2023-02-04T16:35:58.191Z,13.30
2023-02-04T16:38:25.915Z,12.65
2023-02-04T16:40:52.893Z,13.15
2023-02-04T16:43:19.463Z,12.64
2023-02-04T16:45:46.213Z,13.24
2023-02-04T16:48:12.662Z,12.95
2023-02-04T16:50:39.039Z,13.02
2023-02-04T16:53:05.604Z,12.67
2023-02-04T16:55:33.480Z,12.50
2023-02-04T16:58:00.094Z,12.76
2023-02-04T17:00:26.500Z,13.01
2023-02-04T17:02:53.596Z,13.07
2023-02-04T17:05:19.985Z,12.55
2023-02-04T17:07:46.310Z,13.08
2023-02-04T17:10:12.669Z,13.00
2023-02-04T17:12:39.065Z,12.41
2023-02-04T17:15:05.783Z,13.21
2023-02-04T17:17:32.281Z,12.94
2023-02-04T17:20:00.310Z,12.35
2023-02-04T17:22:26.840Z,12.54
2023-02-04T17:24:54.741Z,12.57
2023-02-04T17:27:21.274Z,12.73
2023-02-04T17:29:47.814Z,12.26
2023-02-04T17:32:14.250Z,12.74
2023-02-04T17:34:40.807Z,12.38
2023-02-04T17:37:07.313Z,12.79
2023-02-04T17:39:33.932Z,11.73
2023-02-04T17:42:03.199Z,12.70
2023-02-04T17:44:30.119Z,12.37
2023-02-04T17:46:59.026Z,11.78
2023-02-04T17:49:27.983Z,11.70
2023-02-04T17:51:54.678Z,11.70
2023-02-04T17:54:21.250Z,11.62
2023-02-04T17:56:56.904Z,12.23
2023-02-04T17:59:23.981Z,12.72
2023-02-04T18:01:58.109Z,12.88
2023-02-04T18:04:25.186Z,12.60
2023-02-04T18:06:52.094Z,12.60
2023-02-04T18:09:18.757Z,12.54
2023-02-04T18:11:45.898Z,12.17
2023-02-04T18:14:17.487Z,12.46
2023-02-04T18:16:44.700Z,12.77
2023-02-04T18:19:21.839Z,12.81
2023-02-04T18:21:49.539Z,12.85
2023-02-04T18:24:30.056Z,12.78
2023-02-04T18:27:01.065Z,12.98
2023-02-04T18:29:32.904Z,13.01
2023-02-04T18:32:16.112Z,12.90
2023-02-04T18:34:53.025Z,12.37
2023-02-04T18:37:36.543Z,12.96
2023-02-04T18:40:09.008Z,12.91
2023-02-04T18:42:43.798Z,12.83
2023-02-04T18:45:22.977Z,12.76
2023-02-04T18:47:49.966Z,12.27
2023-02-04T18:50:28.163Z,12.78
2023-02-04T18:52:54.554Z,12.63
2023-02-04T18:55:34.772Z,12.77
2023-02-04T18:58:40.723Z,12.59
2023-02-04T19:01:10.130Z,12.44
2023-02-04T19:03:45.475Z,12.45
2023-02-04T19:06:25.486Z,12.25
2023-02-04T19:08:52.596Z,11.68
2023-02-04T19:11:41.565Z,12.15
2023-02-04T19:14:33.064Z,12.13
2023-02-04T19:17:22.351Z,11.76
2023-02-04T19:19:57.852Z,12.07
2023-02-04T19:22:46.070Z,12.08
2023-02-04T19:25:25.180Z,11.97
2023-02-04T19:27:54.923Z,11.63
2023-02-04T19:30:27.636Z,12.10
2023-02-04T19:33:02.177Z,11.96
2023-02-04T19:35:39.254Z,11.86
2023-02-04T19:38:22.545Z,11.76
2023-02-04T19:40:51.580Z,11.67
2023-02-04T19:43:26.809Z,11.86
2023-02-04T19:45:54.335Z,11.78
2023-02-04T19:48:36.346Z,11.96
2023-02-04T19:51:28.075Z,12.04
2023-02-04T19:54:39.203Z,11.97
2023-02-04T19:57:25.658Z,12.03
2023-02-04T19:59:56.432Z,11.93
2023-02-04T20:02:36.472Z,11.81
2023-02-04T20:05:15.820Z,11.91
2023-02-04T20:07:42.450Z,11.84
2023-02-04T20:10:25.943Z,11.61
2023-02-04T20:12:59.352Z,11.82
2023-02-04T20:15:25.984Z,11.82
2023-02-04T20:17:52.855Z,11.24
2023-02-04T20:20:21.430Z,11.65
2023-02-04T20:22:48.872Z,11.59
2023-02-04T20:25:36.750Z,11.40
2023-02-04T20:28:15.459Z,11.17
2023-02-04T20:30:41.985Z,10.60
2023-02-04T20:33:44.980Z,11.16
2023-02-04T20:36:28.390Z,10.97
2023-02-04T20:39:17.331Z,11.42
2023-02-04T20:41:43.670Z,10.88
2023-02-04T20:44:20.529Z,11.16
2023-02-04T20:46:46.914Z,11.00
2023-02-04T20:49:25.336Z,11.23
2023-02-04T20:51:59.156Z,11.01
2023-02-04T20:54:29.484Z,10.96
2023-02-04T20:57:14.616Z,11.36
2023-02-04T20:59:42.638Z,11.21
2023-02-04T21:02:20.881Z,10.87
2023-02-04T21:04:51.942Z,11.44
2023-02-04T21:07:22.732Z,11.44
2023-02-04T21:09:49.616Z,11.19
2023-02-04T21:12:16.034Z,11.43
2023-02-04T21:14:42.610Z,11.41
2023-02-04T21:17:08.961Z,11.38
2023-02-04T21:19:35.411Z,11.04
2023-02-04T21:22:02.228Z,11.33
2023-02-04T21:24:31.404Z,11.12
2023-02-04T21:26:57.760Z,10.96
2023-02-04T21:29:25.958Z,11.12
2023-02-04T21:31:54.258Z,11.22
2023-02-04T21:34:20.708Z,11.32
2023-02-04T21:36:47.117Z,11.11
2023-02-04T21:39:13.557Z,10.95
2023-02-04T21:41:39.895Z,11.06
2023-02-04T21:44:06.235Z,11.27
2023-02-04T21:46:33.009Z,11.38
2023-02-04T21:48:59.650Z,11.11
2023-02-04T21:51:27.923Z,11.21
2023-02-04T21:53:54.258Z,11.14
2023-02-04T21:56:20.589Z,11.26
2023-02-04T21:58:46.901Z,11.29
2023-02-04T22:01:15.566Z,11.18
2023-02-04T22:03:41.933Z,11.18
2023-02-04T22:06:08.319Z,11.27
2023-02-04T22:08:34.656Z,11.01
2023-02-04T22:11:01.005Z,11.33
2023-02-04T22:13:27.361Z,11.21
2023-02-04T22:15:53.711Z,11.22
2023-02-04T22:18:20.680Z,11.22
2023-02-04T22:20:47.025Z,10.56
2023-02-04T22:23:13.367Z,11.21
2023-02-04T22:25:39.703Z,10.96
2023-02-04T22:28:06.056Z,11.10
2023-02-04T22:30:32.412Z,11.07
2023-02-04T22:33:00.653Z,11.29
2023-02-04T22:35:29.624Z,11.19
2023-02-04T22:37:55.943Z,11.09
2023-02-04T22:40:22.268Z,11.13
2023-02-04T22:42:48.603Z,10.93
2023-02-04T22:45:14.960Z,10.82
2023-02-04T22:47:41.344Z,10.82
2023-02-04T22:50:08.519Z,10.74
2023-02-04T22:52:34.975Z,10.59
2023-02-04T22:55:01.392Z,10.70
2023-02-04T22:57:27.766Z,10.72
2023-02-04T22:59:54.081Z,10.21
2023-02-04T23:02:20.434Z,10.55
2023-02-04T23:04:46.771Z,10.83
2023-02-04T23:07:13.864Z,10.80
2023-02-04T23:09:40.430Z,10.69
2023-02-04T23:12:13.066Z,10.90
2023-02-04T23:14:42.072Z,10.58
2023-02-04T23:17:09.235Z,10.69
2023-02-04T23:19:35.703Z,10.78
2023-02-04T23:22:02.608Z,10.73
2023-02-04T23:24:29.939Z,10.73
2023-02-04T23:26:58.526Z,10.30
2023-02-04T23:29:24.881Z,10.72
2023-02-04T23:31:51.240Z,10.75
2023-02-04T23:34:17.601Z,10.66
2023-02-04T23:36:45.588Z,10.59
2023-02-04T23:39:12.439Z,10.59
2023-02-04T23:41:38.818Z,10.50
2023-02-04T23:44:05.207Z,10.37
2023-02-04T23:46:31.574Z,10.46
2023-02-04T23:48:57.900Z,10.39
2023-02-04T23:51:24.320Z,10.38
2023-02-04T23:53:50.669Z,10.63
2023-02-04T23:56:16.988Z,10.32
2023-02-04T23:58:43.374Z,10.56
